NCAR-RAP Real-Time Weather Data

Output produced by METARs form (08 May 2021  01:36 UTC)
found at http://weather.rap.ucar.edu/surface/
 
KSSI 080053Z AUTO 33006KT 10SM CLR 22/05 A3000 RMK AO2 SLP160 T02220050
KSSI 072353Z AUTO 31010KT 10SM CLR 24/05 A2997 RMK AO2 SLP151 T02390050 10278 20239 53010
KSSI 072253Z AUTO 30014G27KT 10SM CLR 26/02 A2996 RMK AO2 PK WND 30027/2249 SLP145 T02560022
KSSI 072153Z AUTO 10SM CLR 27/02 A2995 RMK AO2 PK WND 31028/2143 SLP142 T02670022
KSSI 072053Z AUTO 30014G26KT 260V330 10SM CLR 27/02 A2994 RMK AO2 PK WND 30026/2019 SLP141 T02720017 58013
KSSI 071953Z AUTO 28016G28KT 10SM CLR 27/03 A2996 RMK AO2 PK WND 30029/1928 SLP146 T02720033
KSSI 071853Z AUTO 29015G25KT 10SM CLR 27/04 A2997 RMK AO2 PK WND 28027/1836 SLP150 T02670044
KSSI 071753Z AUTO 30011G22KT 10SM CLR 26/04 A2998 RMK AO2 PK WND 32028/1743 SLP154 T02610044 10267 20183 58008
KSSI 071653Z AUTO 29011G23KT 10SM CLR 26/04 A3000 RMK AO2 PK WND 31028/1631 SLP159 T02560039
KSSI 071553Z AUTO 29012G20KT 10SM CLR 24/05 A3001 RMK AO2 SLP164 T02440050
KSSI 071453Z AUTO 29014G24KT 10SM CLR 22/06 A3001 RMK AO2 PK WND 31026/1442 SLP162 T02220061 50004
KSSI 071353Z AUTO 31012G20KT 10SM CLR 21/08 A3001 RMK AO2 SLP163 T02060083
KSSI 071253Z AUTO 30008G21KT 270V340 10SM CLR 19/08 A3001 RMK AO2 SLP162 T01890083
KSSI 071153Z AUTO 30007KT 10SM CLR 18/09 A2999 RMK AO2 SLP158 T01830089 10206 20167 53011
KSSI 071053Z AUTO 28005KT 10SM CLR 17/09 A2998 RMK AO2 SLP153 T01720094
KSSI 070953Z AUTO 29006KT 10SM CLR 17/10 A2996 RMK AO2 SLP148 T01720100